Time;durP1;ratioP1;P1;durP2;ratioP2;P2;SDS_P1;SDS_P2;PMS_P1;PMS_P2;Temp;Humidity;BMP_temperature;BMP_pressure;BME280_temperature;BME280_humidity;BME280_pressure;Samples;Min_cycle;Max_cycle;Signal;HPM_P1;HPM_P2
2023/05/09 00:00:16;;;;;;;15.98;11.40;;;15.20;92.10;;;;;;6158209;22;91074;-78
2023/05/09 00:02:44;;;;;;;16.65;11.45;;;15.20;92.00;;;;;;6186202;22;87204;-77
2023/05/09 00:05:10;;;;;;;17.08;10.77;;;15.20;92.10;;;;;;6184713;22;91080;-77
2023/05/09 00:07:36;;;;;;;17.83;11.63;;;15.20;92.20;;;;;;6184710;22;89583;-77
2023/05/09 00:10:02;;;;;;;15.38;10.98;;;15.20;92.50;;;;;;6185807;22;88896;-77
2023/05/09 00:12:28;;;;;;;16.08;11.57;;;15.20;92.10;;;;;;6159010;22;87396;-77
2023/05/09 00:14:55;;;;;;;14.10;10.50;;;15.10;92.30;;;;;;6186263;22;87341;-77
2023/05/09 00:17:22;;;;;;;17.92;12.00;;;15.10;92.20;;;;;;6159739;22;90024;-78
2023/05/09 00:19:49;;;;;;;15.13;11.20;;;15.00;92.40;;;;;;6158140;22;89005;-78
2023/05/09 00:22:16;;;;;;;15.63;11.30;;;15.00;92.30;;;;;;6159090;22;87167;-77
2023/05/09 00:24:42;;;;;;;21.55;11.70;;;15.00;92.30;;;;;;6159605;22;89012;-77
2023/05/09 00:27:09;;;;;;;16.33;11.77;;;15.00;92.50;;;;;;6185607;22;87658;-78
2023/05/09 00:29:34;;;;;;;18.42;12.10;;;15.00;92.50;;;;;;6186943;22;88384;-77
2023/05/09 00:32:00;;;;;;;19.48;12.63;;;14.90;92.60;;;;;;6185547;22;88435;-78
2023/05/09 00:34:26;;;;;;;18.88;12.18;;;14.90;92.60;;;;;;6185851;22;87827;-78
2023/05/09 00:36:51;;;;;;;19.25;13.25;;;14.90;92.90;;;;;;6186135;22;88506;-77
2023/05/09 00:39:17;;;;;;;22.08;13.13;;;14.90;92.90;;;;;;6158836;22;91882;-77
2023/05/09 00:41:43;;;;;;;19.02;12.80;;;14.80;92.90;;;;;;6187486;22;87042;-78
2023/05/09 00:44:08;;;;;;;18.17;12.65;;;14.80;92.90;;;;;;6185819;22;87060;-78
2023/05/09 00:46:34;;;;;;;19.63;13.50;;;14.80;93.10;;;;;;6185934;22;88413;-77
2023/05/09 00:49:00;;;;;;;21.90;14.48;;;14.70;93.10;;;;;;6186370;22;86959;-78
2023/05/09 00:51:28;;;;;;;25.73;14.57;;;14.70;93.20;;;;;;6186015;22;87378;-78
2023/05/09 00:53:53;;;;;;;23.65;13.85;;;14.70;93.10;;;;;;6185783;22;87745;-78
2023/05/09 00:56:20;;;;;;;19.90;14.07;;;14.70;93.20;;;;;;6185741;22;90064;-78
2023/05/09 00:58:47;;;;;;;24.40;14.25;;;14.70;93.20;;;;;;6185561;22;89949;-77
2023/05/09 01:01:12;;;;;;;21.02;13.82;;;14.70;93.40;;;;;;6158871;22;87117;-77
2023/05/09 01:03:40;;;;;;;23.30;14.73;;;14.70;93.20;;;;;;6186137;22;88091;-77
2023/05/09 01:06:19;;;;;;;27.13;15.38;;;14.70;93.40;;;;;;6158981;22;90761;-77
2023/05/09 01:09:28;;;;;;;24.38;15.73;;;14.60;93.50;;;;;;6159097;22;90080;-78
2023/05/09 01:12:27;;;;;;;27.70;16.13;;;14.60;93.70;;;;;;6092561;23;87392;-78
2023/05/09 01:15:13;;;;;;;23.00;16.85;;;14.60;93.80;;;;;;6062310;23;88720;-78
2023/05/09 01:17:54;;;;;;;23.33;15.82;;;14.60;93.90;;;;;;6173237;22;87786;-78
2023/05/09 01:20:28;;;;;;;25.02;15.90;;;14.50;93.90;;;;;;6186304;22;93135;-78
2023/05/09 01:23:32;;;;;;;22.08;15.68;;;14.50;93.90;;;;;;6185180;22;91630;-78
2023/05/09 01:26:20;;;;;;;25.85;15.98;;;14.50;93.80;;;;;;6158892;22;88604;-78
2023/05/09 01:29:11;;;;;;;26.48;16.33;;;14.50;94.00;;;;;;6185912;22;88077;-78
2023/05/09 01:31:40;;;;;;;24.75;16.77;;;14.50;93.90;;;;;;6160923;22;88106;-78
2023/05/09 01:34:07;;;;;;;26.40;16.33;;;14.50;94.20;;;;;;6158395;22;87356;-77
2023/05/09 01:36:36;;;;;;;23.67;15.75;;;14.50;94.00;;;;;;6186181;22;88000;-78
2023/05/09 01:39:04;;;;;;;23.05;16.50;;;14.50;94.10;;;;;;6186030;22;87490;-77
2023/05/09 01:41:35;;;;;;;27.10;15.90;;;14.50;94.20;;;;;;6187791;22;87832;-78
2023/05/09 01:44:05;;;;;;;24.17;16.20;;;14.40;94.10;;;;;;6173725;22;91319;-78
2023/05/09 01:46:31;;;;;;;25.90;16.17;;;14.50;94.10;;;;;;6158470;22;88989;-77
2023/05/09 01:48:58;;;;;;;24.95;16.10;;;14.40;94.10;;;;;;6158382;22;90006;-78
2023/05/09 01:51:25;;;;;;;25.92;16.33;;;14.40;94.10;;;;;;6158383;22;91350;-78
2023/05/09 01:53:53;;;;;;;26.88;16.35;;;14.40;94.20;;;;;;6186398;22;87627;-77
2023/05/09 01:56:21;;;;;;;27.30;16.33;;;14.40;94.30;;;;;;6159562;22;89662;-78
2023/05/09 01:58:48;;;;;;;27.55;16.65;;;14.40;94.20;;;;;;6185746;22;89014;-78
2023/05/09 02:01:15;;;;;;;26.23;16.80;;;14.40;94.20;;;;;;6185873;22;87347;-77
2023/05/09 02:03:43;;;;;;;28.08;18.45;;;14.30;94.40;;;;;;6159095;22;87670;-77
2023/05/09 02:06:10;;;;;;;31.52;17.40;;;14.30;94.40;;;;;;6186354;22;87229;-78
2023/05/09 02:08:36;;;;;;;25.70;16.45;;;14.30;94.40;;;;;;6187015;22;88367;-77
2023/05/09 02:11:02;;;;;;;26.50;17.23;;;14.30;94.40;;;;;;6158863;22;91032;-77
2023/05/09 02:13:28;;;;;;;26.52;17.48;;;14.30;94.40;;;;;;6185387;22;88149;-78
2023/05/09 02:15:54;;;;;;;28.58;17.77;;;14.30;94.40;;;;;;6159269;22;89571;-77
2023/05/09 02:18:20;;;;;;;26.92;16.35;;;14.30;94.40;;;;;;6185836;22;88435;-78
2023/05/09 02:20:46;;;;;;;28.23;17.77;;;14.30;94.60;;;;;;6186124;22;88063;-77
2023/05/09 02:23:12;;;;;;;27.40;17.75;;;14.30;94.60;;;;;;6160412;22;87667;-78
2023/05/09 02:25:39;;;;;;;24.63;17.88;;;14.30;94.70;;;;;;6186648;22;87662;-78
2023/05/09 02:28:06;;;;;;;27.23;17.67;;;14.20;94.60;;;;;;6157456;22;91729;-77
2023/05/09 02:30:37;;;;;;;27.83;17.20;;;14.20;94.70;;;;;;6181880;22;87752;-78
2023/05/09 02:33:06;;;;;;;27.63;17.48;;;14.20;94.60;;;;;;6153981;22;87525;-79
2023/05/09 02:35:33;;;;;;;23.70;16.58;;;14.20;94.70;;;;;;6183168;22;87668;-77
2023/05/09 02:37:59;;;;;;;25.10;17.08;;;14.20;94.60;;;;;;6154580;22;93130;-77
2023/05/09 02:40:26;;;;;;;24.27;16.60;;;14.20;94.50;;;;;;6182830;22;89999;-78
2023/05/09 02:42:52;;;;;;;24.52;17.08;;;14.10;94.50;;;;;;6158228;22;87505;-77
2023/05/09 02:45:18;;;;;;;23.63;15.52;;;14.10;94.60;;;;;;6157688;22;90292;-77
2023/05/09 02:47:43;;;;;;;23.33;16.70;;;14.10;94.60;;;;;;6185383;22;88589;-77
2023/05/09 02:50:10;;;;;;;23.63;16.48;;;14.10;94.70;;;;;;6158469;22;95826;-77
2023/05/09 02:52:36;;;;;;;25.55;15.77;;;14.10;94.70;;;;;;6185533;22;87068;-77
2023/05/09 02:55:02;;;;;;;23.77;14.98;;;14.10;94.70;;;;;;6185423;22;87769;-78
2023/05/09 02:57:28;;;;;;;22.02;14.75;;;14.10;94.80;;;;;;6185525;22;89022;-78
2023/05/09 02:59:54;;;;;;;25.08;15.32;;;14.10;94.70;;;;;;6158269;22;89845;-77
2023/05/09 03:02:19;;;;;;;23.38;15.98;;;14.10;94.80;;;;;;6185773;22;88462;-77
2023/05/09 03:04:45;;;;;;;23.80;16.02;;;14.10;94.80;;;;;;6158709;22;90333;-77
2023/05/09 03:07:11;;;;;;;23.08;15.40;;;14.00;94.80;;;;;;6158137;22;90249;-78
2023/05/09 03:09:36;;;;;;;25.48;16.05;;;14.00;94.90;;;;;;6158052;22;90324;-77
2023/05/09 03:12:03;;;;;;;25.63;16.13;;;14.00;94.90;;;;;;6185643;22;87587;-77
2023/05/09 03:14:28;;;;;;;27.20;15.23;;;14.00;94.90;;;;;;6158931;22;89503;-78
2023/05/09 03:16:54;;;;;;;21.23;14.50;;;14.00;94.90;;;;;;6158367;22;91895;-78
2023/05/09 03:19:20;;;;;;;20.02;14.07;;;14.00;94.90;;;;;;6185861;22;88416;-77
2023/05/09 03:21:46;;;;;;;28.58;14.68;;;14.00;94.80;;;;;;6185290;22;87202;-77
2023/05/09 03:24:11;;;;;;;22.00;14.80;;;14.00;94.90;;;;;;6185246;22;87326;-78
2023/05/09 03:26:37;;;;;;;21.52;15.10;;;14.00;94.80;;;;;;6158653;22;92681;-78
2023/05/09 03:29:03;;;;;;;22.42;15.00;;;14.00;94.80;;;;;;6184768;22;89544;-77
2023/05/09 03:31:29;;;;;;;22.08;14.73;;;14.00;94.80;;;;;;6158088;22;87577;-78
2023/05/09 03:33:54;;;;;;;23.48;14.63;;;14.00;94.80;;;;;;6184493;22;87336;-77
2023/05/09 03:36:20;;;;;;;23.70;15.85;;;14.00;94.80;;;;;;6158566;22;91747;-78
2023/05/09 03:38:46;;;;;;;24.52;15.48;;;14.00;94.90;;;;;;6184830;22;87694;-77
2023/05/09 03:41:15;;;;;;;21.88;15.73;;;14.00;94.90;;;;;;6158811;22;87282;-78
2023/05/09 03:43:40;;;;;;;21.58;14.15;;;14.00;94.90;;;;;;6158142;22;89041;-78
2023/05/09 03:46:06;;;;;;;20.75;14.30;;;14.00;94.80;;;;;;6159097;22;90187;-78
2023/05/09 03:48:32;;;;;;;19.42;13.73;;;14.00;94.80;;;;;;6185814;22;88178;-78
2023/05/09 03:50:57;;;;;;;20.10;13.35;;;14.00;94.70;;;;;;6185334;22;88698;-78
2023/05/09 03:53:23;;;;;;;20.83;14.75;;;14.00;94.70;;;;;;6160242;22;88897;-78
2023/05/09 03:55:49;;;;;;;23.98;14.73;;;14.00;94.90;;;;;;6158734;22;91665;-77
2023/05/09 03:58:14;;;;;;;18.70;13.80;;;13.90;94.80;;;;;;6186011;22;87810;-77
2023/05/09 04:00:40;;;;;;;20.95;15.55;;;13.90;94.80;;;;;;6186410;22;87342;-78
2023/05/09 04:03:07;;;;;;;19.63;14.20;;;13.90;94.80;;;;;;6186040;22;87294;-77
2023/05/09 04:05:34;;;;;;;20.10;14.43;;;14.00;94.80;;;;;;6187150;22;88653;-78
2023/05/09 04:07:59;;;;;;;20.52;14.00;;;14.00;94.90;;;;;;6158813;22;91565;-78
2023/05/09 04:10:25;;;;;;;22.33;14.73;;;14.00;95.00;;;;;;6185813;22;87479;-78
2023/05/09 04:12:51;;;;;;;23.08;14.32;;;14.00;94.70;;;;;;6185672;22;87814;-78
2023/05/09 04:15:17;;;;;;;21.75;13.48;;;14.00;94.90;;;;;;6184797;22;89546;-78
2023/05/09 04:17:42;;;;;;;20.20;14.13;;;14.00;94.80;;;;;;6186900;22;88262;-77
2023/05/09 04:20:09;;;;;;;21.10;14.20;;;14.00;94.70;;;;;;6158660;22;87684;-77
2023/05/09 04:22:35;;;;;;;19.73;14.35;;;14.00;94.80;;;;;;6158487;22;87998;-77
2023/05/09 04:25:02;;;;;;;21.30;13.60;;;14.00;94.70;;;;;;6186183;22;88203;-78
2023/05/09 04:27:28;;;;;;;21.00;13.50;;;14.00;94.60;;;;;;6158805;22;90937;-78
2023/05/09 04:29:54;;;;;;;19.92;13.05;;;14.00;94.50;;;;;;6173982;22;87230;-78
2023/05/09 04:32:21;;;;;;;22.30;13.75;;;14.00;94.60;;;;;;6187805;22;86311;-78
2023/05/09 04:34:47;;;;;;;20.45;13.00;;;14.00;94.50;;;;;;6158435;22;90332;-78
2023/05/09 04:37:12;;;;;;;22.58;13.80;;;14.10;94.50;;;;;;6185911;22;88428;-77
2023/05/09 04:39:38;;;;;;;18.58;12.65;;;14.10;94.50;;;;;;6158226;22;88531;-78
2023/05/09 04:42:04;;;;;;;21.20;12.27;;;14.10;94.50;;;;;;6185991;22;88180;-77
2023/05/09 04:44:30;;;;;;;20.85;12.82;;;14.10;94.50;;;;;;6159942;22;91648;-78
2023/05/09 04:46:57;;;;;;;17.73;12.32;;;14.20;94.50;;;;;;6185476;22;88375;-77
2023/05/09 04:49:23;;;;;;;17.00;12.25;;;14.20;94.30;;;;;;6158516;22;88423;-77
2023/05/09 04:51:49;;;;;;;18.83;11.93;;;14.20;94.20;;;;;;6185600;22;87403;-77
2023/05/09 04:54:15;;;;;;;17.17;12.00;;;14.20;94.20;;;;;;6185471;22;88224;-78
2023/05/09 04:56:41;;;;;;;19.02;12.18;;;14.20;94.00;;;;;;6186943;22;88345;-78
2023/05/09 04:59:06;;;;;;;14.75;11.32;;;14.30;93.90;;;;;;6185611;22;87156;-77
2023/05/09 05:01:32;;;;;;;18.33;10.93;;;14.30;93.90;;;;;;6185240;22;87406;-78
2023/05/09 05:03:58;;;;;;;15.93;10.73;;;14.30;93.80;;;;;;6183913;22;89092;-78
2023/05/09 05:06:23;;;;;;;16.23;10.73;;;14.30;93.90;;;;;;6184084;22;89767;-78
2023/05/09 05:08:49;;;;;;;16.45;10.90;;;14.40;93.90;;;;;;6184418;22;87477;-78
2023/05/09 05:11:16;;;;;;;15.20;10.40;;;14.40;93.60;;;;;;6184559;22;87480;-78
2023/05/09 05:13:42;;;;;;;17.08;11.52;;;14.50;93.70;;;;;;6156630;22;91818;-79
2023/05/09 05:16:08;;;;;;;16.25;10.55;;;14.50;93.80;;;;;;6183150;22;88254;-78
2023/05/09 05:18:34;;;;;;;16.17;10.07;;;14.60;93.60;;;;;;6156627;22;87360;-78
2023/05/09 05:20:59;;;;;;;19.40;10.23;;;14.70;93.30;;;;;;6183757;22;87386;-78
2023/05/09 05:23:25;;;;;;;12.85;9.88;;;14.70;93.10;;;;;;6182950;22;89600;-78
2023/05/09 05:25:51;;;;;;;18.20;9.32;;;14.80;93.00;;;;;;6183378;22;87939;-78
2023/05/09 05:28:17;;;;;;;17.33;9.68;;;14.90;92.80;;;;;;6157853;22;88431;-78
2023/05/09 05:30:43;;;;;;;15.75;9.65;;;14.90;92.50;;;;;;6185453;22;87278;-78
2023/05/09 05:33:08;;;;;;;15.43;9.45;;;14.90;92.50;;;;;;6185612;22;88115;-77
2023/05/09 05:35:34;;;;;;;14.93;9.38;;;14.90;92.40;;;;;;6185859;22;88225;-77
2023/05/09 05:38:00;;;;;;;18.83;9.93;;;15.00;92.50;;;;;;6185876;22;87844;-78
2023/05/09 05:40:26;;;;;;;12.15;8.88;;;15.10;92.20;;;;;;6185304;22;87448;-77
2023/05/09 05:42:51;;;;;;;16.75;9.68;;;15.10;92.20;;;;;;6185688;22;88360;-78
2023/05/09 05:45:17;;;;;;;15.75;9.60;;;15.10;92.10;;;;;;6158894;22;89849;-78
2023/05/09 05:47:42;;;;;;;16.17;9.68;;;15.20;92.30;;;;;;6159931;22;87279;-77
2023/05/09 05:50:10;;;;;;;13.88;8.77;;;15.30;92.00;;;;;;6185296;22;87578;-77
2023/05/09 05:52:40;;;;;;;14.00;8.90;;;15.30;91.80;;;;;;6157865;22;91634;-77
2023/05/09 05:55:06;;;;;;;15.32;8.88;;;15.30;91.60;;;;;;6185744;22;88150;-78
2023/05/09 05:57:34;;;;;;;15.95;9.25;;;15.40;91.60;;;;;;6158094;22;87393;-77
2023/05/09 06:00:00;;;;;;;15.18;9.13;;;15.50;91.70;;;;;;6184177;22;88223;-77
2023/05/09 06:02:26;;;;;;;14.30;9.45;;;15.50;91.70;;;;;;6160577;22;89625;-77
2023/05/09 06:04:51;;;;;;;13.70;8.57;;;15.50;91.40;;;;;;6185246;22;88400;-77
2023/05/09 06:07:17;;;;;;;11.80;8.40;;;15.60;91.30;;;;;;6186096;22;87634;-77
2023/05/09 06:09:43;;;;;;;13.48;8.73;;;15.60;91.20;;;;;;6185533;22;86974;-77
2023/05/09 06:12:08;;;;;;;17.02;9.00;;;15.70;91.40;;;;;;6185860;22;87992;-78
2023/05/09 06:17:00;;;;;;;9.57;7.68;;;15.80;90.60;;;;;;6078145;22;93628;-81
2023/05/09 06:19:26;;;;;;;10.65;7.80;;;15.90;91.40;;;;;;6183403;22;87496;-78
2023/05/09 06:21:52;;;;;;;10.82;7.72;;;16.00;90.90;;;;;;6186397;22;87718;-82
2023/05/09 06:24:18;;;;;;;10.52;7.85;;;16.00;90.70;;;;;;6162314;22;91330;-82
2023/05/09 06:26:43;;;;;;;11.63;7.03;;;16.00;90.70;;;;;;6188788;22;87305;-81
2023/05/09 06:29:09;;;;;;;13.25;8.80;;;15.90;90.70;;;;;;6160111;22;94287;-80
2023/05/09 06:31:37;;;;;;;9.60;7.95;;;15.90;90.70;;;;;;6187327;22;87316;-85
2023/05/09 06:34:03;;;;;;;14.32;8.48;;;16.00;90.70;;;;;;6159660;22;91446;-84
2023/05/09 06:36:29;;;;;;;11.55;7.50;;;16.10;90.60;;;;;;6160057;22;87296;-80
2023/05/09 06:38:55;;;;;;;12.65;7.70;;;16.10;90.60;;;;;;6159364;22;89600;-79
2023/05/09 06:41:21;;;;;;;10.45;7.70;;;16.20;90.60;;;;;;6186376;22;89890;-79
2023/05/09 06:43:47;;;;;;;13.30;7.30;;;16.30;90.50;;;;;;6159062;22;91173;-77
2023/05/09 06:46:12;;;;;;;9.82;7.00;;;16.40;90.80;;;;;;6186315;22;87405;-77
2023/05/09 06:48:39;;;;;;;9.18;7.50;;;16.40;90.60;;;;;;6159513;22;87775;-77
2023/05/09 06:51:05;;;;;;;9.50;7.03;;;16.50;90.20;;;;;;6159294;22;90582;-77
2023/05/09 06:53:31;;;;;;;11.00;8.02;;;16.60;90.40;;;;;;6186795;22;87685;-77
2023/05/09 06:55:56;;;;;;;9.95;7.53;;;16.60;90.10;;;;;;6186229;22;87311;-77
2023/05/09 06:58:22;;;;;;;13.77;7.30;;;16.60;90.00;;;;;;6186198;22;87367;-77
2023/05/09 07:00:48;;;;;;;10.35;8.10;;;16.60;89.70;;;;;;6158661;22;91433;-77
2023/05/09 07:03:14;;;;;;;10.95;7.95;;;16.60;90.30;;;;;;6186144;22;88924;-77
2023/05/09 07:05:43;;;;;;;10.95;7.50;;;16.60;90.00;;;;;;6156002;22;88696;-77
2023/05/09 07:08:09;;;;;;;14.00;8.13;;;16.60;90.60;;;;;;6185693;22;94773;-77
2023/05/09 07:10:35;;;;;;;11.70;8.13;;;16.60;90.90;;;;;;6184419;22;88350;-78
2023/05/09 07:13:01;;;;;;;10.32;7.43;;;16.70;90.90;;;;;;6158069;22;89790;-81
2023/05/09 07:15:26;;;;;;;8.35;7.32;;;16.70;90.30;;;;;;6158547;22;87476;-78
2023/05/09 07:17:52;;;;;;;12.20;7.93;;;16.70;90.50;;;;;;6157748;22;91039;-78
2023/05/09 07:20:18;;;;;;;13.70;8.43;;;16.70;90.70;;;;;;6186334;22;87424;-78
2023/05/09 07:22:44;;;;;;;12.90;8.27;;;16.60;90.50;;;;;;6185865;22;88804;-77
2023/05/09 07:25:09;;;;;;;11.32;8.65;;;16.50;90.80;;;;;;6186036;22;87396;-77
2023/05/09 07:27:35;;;;;;;11.57;7.88;;;16.50;90.90;;;;;;6186097;22;87560;-78
2023/05/09 07:30:04;;;;;;;11.73;8.40;;;16.50;90.80;;;;;;6157282;22;92525;-78
2023/05/09 07:32:30;;;;;;;11.43;8.02;;;16.50;91.10;;;;;;6159242;22;92316;-77
2023/05/09 07:34:56;;;;;;;10.75;8.02;;;16.40;91.60;;;;;;6185458;22;87351;-77
2023/05/09 07:37:22;;;;;;;9.50;7.43;;;16.30;91.30;;;;;;6185523;22;87578;-77
2023/05/09 07:39:48;;;;;;;13.85;8.30;;;16.30;91.80;;;;;;6185567;22;88275;-78
2023/05/09 07:42:16;;;;;;;11.70;8.00;;;16.20;91.70;;;;;;6158614;22;89794;-87
2023/05/09 07:44:42;;;;;;;10.52;8.65;;;16.20;92.50;;;;;;6161714;22;87528;-83
2023/05/09 07:47:08;;;;;;;15.35;8.70;;;16.10;92.60;;;;;;6158855;22;89082;-81
2023/05/09 07:49:34;;;;;;;16.25;9.32;;;16.00;92.80;;;;;;6158544;22;90226;-81
2023/05/09 07:52:00;;;;;;;12.43;8.35;;;16.00;93.10;;;;;;6158469;22;90976;-81
2023/05/09 07:54:26;;;;;;;13.13;8.60;;;16.00;92.80;;;;;;6185256;22;88459;-80
2023/05/09 07:56:52;;;;;;;10.25;8.43;;;16.00;92.90;;;;;;6185652;22;87187;-81
2023/05/09 07:59:18;;;;;;;12.25;9.18;;;16.00;93.50;;;;;;6186807;22;87925;-81
2023/05/09 08:01:44;;;;;;;12.82;9.10;;;16.00;93.30;;;;;;6157932;22;91265;-81
2023/05/09 08:04:09;;;;;;;11.32;9.35;;;15.90;93.10;;;;;;6159265;22;87293;-81
2023/05/09 08:06:36;;;;;;;11.27;9.23;;;15.90;93.80;;;;;;6158623;22;89222;-79
2023/05/09 08:09:02;;;;;;;14.02;9.95;;;16.00;94.10;;;;;;6158642;22;91168;-81
2023/05/09 08:11:27;;;;;;;9.70;8.70;;;16.00;94.20;;;;;;6186413;22;88694;-81
2023/05/09 08:13:53;;;;;;;13.40;10.00;;;16.00;93.70;;;;;;6157897;22;87684;-80
2023/05/09 08:16:22;;;;;;;12.35;8.50;;;16.10;93.90;;;;;;6184981;22;88873;-81
2023/05/09 08:18:56;;;;;;;8.35;6.72;;;16.10;93.50;;;;;;6184546;22;89200;-82
2023/05/09 08:21:23;;;;;;;10.75;6.72;;;16.00;92.50;;;;;;6157940;22;90462;-82
2023/05/09 08:23:49;;;;;;;12.77;7.43;;;15.90;92.80;;;;;;6158958;22;87392;-81
2023/05/09 08:26:14;;;;;;;8.63;6.20;;;15.90;93.00;;;;;;6160016;22;90415;-81
2023/05/09 08:28:41;;;;;;;8.90;6.93;;;15.90;92.30;;;;;;6157867;22;91299;-81
2023/05/09 08:31:08;;;;;;;8.10;6.97;;;15.80;92.80;;;;;;6159104;22;91258;-81
2023/05/09 08:33:33;;;;;;;8.88;7.15;;;15.80;92.90;;;;;;6159733;22;87445;-81
2023/05/09 08:35:59;;;;;;;8.27;6.18;;;15.80;92.90;;;;;;6146325;22;90897;-81
2023/05/09 08:38:25;;;;;;;8.93;6.53;;;15.70;92.80;;;;;;6163292;22;90153;-85
2023/05/09 08:40:51;;;;;;;10.55;7.28;;;15.70;93.10;;;;;;6164213;22;90829;-84
2023/05/09 08:43:19;;;;;;;8.63;7.57;;;15.70;93.90;;;;;;6159706;22;89292;-84
2023/05/09 08:45:49;;;;;;;12.30;8.95;;;15.70;93.70;;;;;;6159768;22;90397;-82
2023/05/09 08:48:15;;;;;;;11.38;9.30;;;15.70;94.20;;;;;;6160124;22;90505;-86
2023/05/09 08:50:43;;;;;;;13.32;9.27;;;15.80;94.50;;;;;;6161848;22;91063;-83
2023/05/09 08:53:09;;;;;;;12.88;9.23;;;15.80;94.50;;;;;;6187668;22;87324;-89
2023/05/09 08:55:36;;;;;;;14.30;10.98;;;15.90;95.00;;;;;;6161754;22;89757;-90
2023/05/09 08:58:03;;;;;;;16.85;11.23;;;15.90;95.10;;;;;;6158942;22;89066;-80
2023/05/09 09:00:30;;;;;;;10.70;8.90;;;16.00;94.90;;;;;;6186946;22;87487;-83
2023/05/09 09:02:59;;;;;;;14.75;9.60;;;16.00;93.90;;;;;;6160371;22;87496;-86
2023/05/09 09:05:26;;;;;;;10.38;8.60;;;16.10;94.20;;;;;;6187429;22;87398;-86
2023/05/09 09:07:53;;;;;;;14.32;9.43;;;16.10;93.50;;;;;;6159683;22;91038;-85
2023/05/09 09:10:24;;;;;;;8.75;6.90;;;16.20;94.40;;;;;;6187463;22;89702;-86
2023/05/09 09:12:52;;;;;;;9.30;6.38;;;16.30;92.90;;;;;;6160374;22;87353;-85
2023/05/09 09:15:19;;;;;;;9.15;6.72;;;16.30;92.70;;;;;;6186624;22;87532;-86
2023/05/09 09:17:49;;;;;;;8.48;6.07;;;16.40;92.80;;;;;;6159841;22;91560;-82
2023/05/09 09:20:17;;;;;;;8.38;5.68;;;16.40;92.20;;;;;;6186681;22;88973;-88
2023/05/09 09:22:46;;;;;;;11.10;5.68;;;16.50;93.00;;;;;;6159344;22;87354;-84
2023/05/09 09:25:12;;;;;;;6.35;5.60;;;16.50;92.90;;;;;;6158837;22;90856;-83
2023/05/09 09:27:38;;;;;;;7.72;5.65;;;16.50;92.30;;;;;;6158115;22;90804;-84
2023/05/09 09:30:08;;;;;;;8.98;6.47;;;16.60;93.00;;;;;;6159384;22;89555;-85
2023/05/09 09:32:35;;;;;;;8.02;5.95;;;16.60;93.00;;;;;;6159967;22;88309;-86
2023/05/09 09:35:08;;;;;;;8.20;5.57;;;16.60;92.40;;;;;;6159901;22;88847;-82
2023/05/09 09:37:35;;;;;;;9.95;5.20;;;16.60;92.10;;;;;;6186038;22;89024;-79
2023/05/09 09:40:02;;;;;;;5.82;4.57;;;16.50;92.90;;;;;;6186221;22;88805;-78
2023/05/09 09:42:43;;;;;;;5.50;4.35;;;16.40;92.60;;;;;;6186856;22;87486;-84
2023/05/09 09:45:12;;;;;;;5.75;3.78;;;16.40;92.70;;;;;;6186774;22;87607;-85
2023/05/09 09:47:38;;;;;;;4.53;3.58;;;16.30;92.90;;;;;;6189167;22;88483;-86
2023/05/09 09:50:15;;;;;;;5.18;2.90;;;16.30;93.10;;;;;;6160938;22;91471;-86
2023/05/09 09:52:49;;;;;;;2.97;2.45;;;16.30;93.40;;;;;;6161356;22;88222;-86
2023/05/09 09:55:15;;;;;;;3.35;1.90;;;16.20;92.70;;;;;;6157880;22;90395;-87
2023/05/09 09:57:45;;;;;;;2.88;1.98;;;16.10;92.30;;;;;;6159939;22;90139;-85
2023/05/09 10:00:16;;;;;;;4.05;2.38;;;15.90;92.80;;;;;;6162123;22;90393;-86
2023/05/09 10:03:18;;;;;;;4.95;2.38;;;15.70;92.50;;;;;;6166925;22;87057;-85
2023/05/09 10:06:03;;;;;;;3.92;2.33;;;15.70;93.40;;;;;;6177402;22;89799;-81
2023/05/09 10:12:38;;;;;;;5.85;3.33;;;15.50;94.00;;;;;;6221027;22;87079;-83
2023/05/09 10:15:44;;;;;;;6.70;3.90;;;15.50;94.20;;;;;;6215187;22;87338;-82
2023/05/09 10:18:39;;;;;;;5.78;2.92;;;15.50;93.90;;;;;;6208458;22;88457;-82
2023/05/09 10:21:08;;;;;;;7.18;3.00;;;15.50;93.70;;;;;;6169043;22;91729;-81
2023/05/09 10:23:39;;;;;;;4.05;2.88;;;15.40;94.00;;;;;;6169037;22;91098;-82
2023/05/09 10:26:27;;;;;;;5.72;3.03;;;15.40;93.80;;;;;;6172139;22;88346;-80
2023/05/09 10:28:56;;;;;;;5.82;3.05;;;15.50;94.30;;;;;;6188803;22;87604;-81
2023/05/09 10:31:27;;;;;;;5.55;3.33;;;15.40;93.60;;;;;;6196330;22;88048;-81
2023/05/09 10:33:57;;;;;;;6.00;3.65;;;15.40;94.60;;;;;;6158694;22;90968;-79
2023/05/09 10:36:23;;;;;;;3.47;3.10;;;15.40;94.70;;;;;;6159052;22;87772;-79
2023/05/09 10:38:52;;;;;;;5.60;3.92;;;15.40;94.80;;;;;;6186046;22;89110;-79
2023/05/09 10:41:20;;;;;;;4.82;3.42;;;15.60;94.90;;;;;;6187047;22;88529;-80
2023/05/09 10:43:47;;;;;;;5.45;4.00;;;15.60;94.50;;;;;;6160286;22;90430;-80
2023/05/09 10:46:13;;;;;;;6.55;4.43;;;15.70;94.20;;;;;;6188242;22;87457;-84
2023/05/09 10:48:40;;;;;;;6.03;4.00;;;15.60;93.80;;;;;;6192938;22;87260;-83
2023/05/09 10:51:07;;;;;;;5.25;3.75;;;15.60;93.90;;;;;;6160188;22;92358;-84
2023/05/09 10:53:59;;;;;;;5.82;3.45;;;15.60;94.10;;;;;;6159645;22;91854;-78
2023/05/09 10:56:30;;;;;;;5.60;3.53;;;15.50;93.80;;;;;;6182656;22;87642;-81
2023/05/09 10:58:56;;;;;;;4.55;3.47;;;15.50;93.80;;;;;;6159516;22;90280;-82
2023/05/09 11:01:38;;;;;;;5.00;3.67;;;15.50;94.10;;;;;;6186438;22;87638;-81
2023/05/09 11:04:15;;;;;;;6.60;4.03;;;15.50;94.70;;;;;;6159529;22;90605;-82
2023/05/09 11:06:44;;;;;;;5.25;3.85;;;15.60;94.50;;;;;;6159842;22;87107;-81
2023/05/09 11:09:32;;;;;;;5.53;3.20;;;15.60;94.10;;;;;;6159492;22;90490;-81
2023/05/09 11:12:05;;;;;;;5.20;3.38;;;15.70;94.20;;;;;;6158300;22;91781;-82
2023/05/09 11:14:40;;;;;;;4.70;3.45;;;15.80;93.50;;;;;;6160302;22;89520;-82
2023/05/09 11:17:26;;;;;;;5.18;3.55;;;15.80;94.00;;;;;;6185753;22;88296;-83
2023/05/09 11:19:51;;;;;;;5.55;3.75;;;15.80;93.50;;;;;;6152936;22;87693;-86
2023/05/09 11:22:22;;;;;;;4.53;3.40;;;15.80;93.30;;;;;;6186021;22;88716;-85
2023/05/09 11:24:50;;;;;;;5.88;3.58;;;15.80;93.40;;;;;;6158348;22;91309;-85
2023/05/09 11:27:24;;;;;;;5.75;3.58;;;15.80;93.50;;;;;;6187493;22;87607;-83
2023/05/09 11:29:55;;;;;;;6.53;3.03;;;15.80;93.30;;;;;;6185952;22;87409;-80
2023/05/09 11:32:27;;;;;;;3.97;3.45;;;15.80;94.20;;;;;;6184815;22;88226;-80
2023/05/09 11:35:06;;;;;;;5.30;3.53;;;15.80;93.60;;;;;;6185174;22;87576;-80
2023/05/09 11:37:32;;;;;;;4.07;3.40;;;15.90;93.30;;;;;;6158224;22;87089;-80
2023/05/09 11:39:59;;;;;;;4.00;2.97;;;15.80;93.40;;;;;;6185081;22;87247;-80
2023/05/09 11:42:27;;;;;;;6.00;2.72;;;15.80;93.40;;;;;;6182655;22;89499;-79
2023/05/09 11:44:53;;;;;;;5.95;3.13;;;15.70;93.30;;;;;;6179063;22;88461;-81
2023/05/09 11:47:23;;;;;;;5.05;3.17;;;15.70;93.60;;;;;;6181338;22;87521;-80
2023/05/09 11:49:49;;;;;;;5.40;3.42;;;15.70;94.00;;;;;;6155536;22;88581;-80
2023/05/09 11:52:15;;;;;;;6.57;3.30;;;15.80;93.90;;;;;;6184449;22;88127;-80
2023/05/09 11:54:41;;;;;;;5.05;3.10;;;15.80;93.60;;;;;;6157108;22;91064;-80
2023/05/09 11:57:07;;;;;;;5.18;3.97;;;15.70;94.00;;;;;;6185301;22;87602;-78
2023/05/09 11:59:34;;;;;;;7.90;4.25;;;15.70;94.00;;;;;;6186020;22;86358;-76
2023/05/09 12:02:04;;;;;;;4.88;4.10;;;15.60;94.30;;;;;;6183327;22;88270;-75
2023/05/09 12:04:33;;;;;;;4.13;3.20;;;15.50;94.20;;;;;;6184088;22;87543;-78
2023/05/09 12:07:00;;;;;;;8.60;3.65;;;15.50;94.20;;;;;;6189127;22;88232;-81
2023/05/09 12:09:31;;;;;;;4.53;3.15;;;15.40;94.90;;;;;;6186867;22;87464;-81
2023/05/09 12:11:58;;;;;;;4.50;3.42;;;15.40;94.70;;;;;;6163061;22;90800;-81
2023/05/09 12:14:32;;;;;;;5.32;2.83;;;15.50;94.80;;;;;;6163244;22;91333;-82
2023/05/09 12:16:57;;;;;;;6.70;3.60;;;15.50;94.50;;;;;;6189736;22;87545;-79
2023/05/09 12:19:24;;;;;;;4.00;3.47;;;15.50;94.90;;;;;;6181677;22;88023;-79
2023/05/09 12:21:55;;;;;;;5.80;3.50;;;15.50;94.60;;;;;;6185378;22;87602;-79
2023/05/09 12:24:21;;;;;;;6.88;3.40;;;15.60;95.30;;;;;;6158975;22;89638;-79
2023/05/09 12:26:48;;;;;;;3.30;2.80;;;15.70;94.90;;;;;;6159163;22;87448;-78
2023/05/09 12:29:14;;;;;;;5.30;3.08;;;15.70;94.30;;;;;;6187488;22;87766;-79
2023/05/09 12:31:40;;;;;;;3.42;2.88;;;15.70;94.60;;;;;;6158066;22;92503;-79
2023/05/09 12:34:09;;;;;;;5.35;3.17;;;15.60;94.70;;;;;;6186074;22;89811;-79
2023/05/09 12:36:35;;;;;;;5.32;3.10;;;15.60;94.90;;;;;;6187509;22;87682;-80
2023/05/09 12:39:02;;;;;;;5.75;3.08;;;15.70;95.00;;;;;;6153219;22;90702;-81
2023/05/09 12:41:28;;;;;;;6.22;3.13;;;15.80;95.00;;;;;;6161598;22;90215;-80
2023/05/09 12:43:54;;;;;;;6.75;3.38;;;15.90;94.90;;;;;;6186604;22;94857;-80
2023/05/09 12:46:21;;;;;;;5.57;3.33;;;16.00;95.40;;;;;;6159813;22;87409;-81